sensor_id;sensor_type;location;lat;lon;timestamp;pressure;altitude;pressure_sealevel;temperature;humidity
77325;BME280;66387;53.440;10.390;2024-03-25T00:00:32;99291.31;;;5.36;100.00
77325;BME280;66387;53.440;10.390;2024-03-25T00:02:58;99289.66;;;5.34;100.00
77325;BME280;66387;53.440;10.390;2024-03-25T00:05:23;99293.06;;;5.34;100.00
77325;BME280;66387;53.440;10.390;2024-03-25T00:07:51;99298.22;;;5.34;100.00
77325;BME280;66387;53.440;10.390;2024-03-25T00:10:16;99299.94;;;5.35;100.00
77325;BME280;66387;53.440;10.390;2024-03-25T00:12:41;99301.56;;;5.39;100.00
77325;BME280;66387;53.440;10.390;2024-03-25T00:15:07;99311.84;;;5.39;100.00
77325;BME280;66387;53.440;10.390;2024-03-25T00:17:32;99317.00;;;5.39;100.00
77325;BME280;66387;53.440;10.390;2024-03-25T00:19:57;99317.84;;;5.40;100.00
77325;BME280;66387;53.440;10.390;2024-03-25T00:22:23;99315.28;;;5.40;100.00
77325;BME280;66387;53.440;10.390;2024-03-25T00:24:52;99315.25;;;5.43;100.00
77325;BME280;66387;53.440;10.390;2024-03-25T00:27:17;99315.31;;;5.38;100.00
77325;BME280;66387;53.440;10.390;2024-03-25T00:29:43;99325.56;;;5.41;100.00
77325;BME280;66387;53.440;10.390;2024-03-25T00:32:09;99323.81;;;5.43;100.00
77325;BME280;66387;53.440;10.390;2024-03-25T00:34:35;99325.56;;;5.41;100.00
77325;BME280;66387;53.440;10.390;2024-03-25T00:37:01;99328.09;;;5.44;100.00
77325;BME280;66387;53.440;10.390;2024-03-25T00:39:27;99331.50;;;5.47;100.00
77325;BME280;66387;53.440;10.390;2024-03-25T00:41:53;99326.34;;;5.47;100.00
77325;BME280;66387;53.440;10.390;2024-03-25T00:44:19;99338.41;;;5.44;100.00
77325;BME280;66387;53.440;10.390;2024-03-25T00:46:44;99340.16;;;5.42;100.00
77325;BME280;66387;53.440;10.390;2024-03-25T00:49:10;99343.53;;;5.44;100.00
77325;BME280;66387;53.440;10.390;2024-03-25T00:51:35;99352.97;;;5.46;100.00
77325;BME280;66387;53.440;10.390;2024-03-25T00:54:01;99341.81;;;5.45;100.00
77325;BME280;66387;53.440;10.390;2024-03-25T00:56:27;99349.56;;;5.43;100.00
77325;BME280;66387;53.440;10.390;2024-03-25T00:58:52;99347.81;;;5.46;100.00
77325;BME280;66387;53.440;10.390;2024-03-25T01:01:17;99346.94;;;5.47;100.00
77325;BME280;66387;53.440;10.390;2024-03-25T01:03:43;99346.06;;;5.48;100.00
77325;BME280;66387;53.440;10.390;2024-03-25T01:06:08;99346.13;;;5.44;100.00
77325;BME280;66387;53.440;10.390;2024-03-25T01:08:34;99347.78;;;5.47;100.00
77325;BME280;66387;53.440;10.390;2024-03-25T01:10:59;99360.69;;;5.46;100.00
77325;BME280;66387;53.440;10.390;2024-03-25T01:13:25;99359.84;;;5.45;100.00
77325;BME280;66387;53.440;10.390;2024-03-25T01:15:51;99365.88;;;5.42;100.00
77325;BME280;66387;53.440;10.390;2024-03-25T01:18:17;99371.00;;;5.44;100.00
77325;BME280;66387;53.440;10.390;2024-03-25T01:20:42;99366.69;;;5.44;100.00
77325;BME280;66387;53.440;10.390;2024-03-25T01:23:07;99370.94;;;5.47;100.00
77325;BME280;66387;53.440;10.390;2024-03-25T01:25:32;99369.31;;;5.40;100.00
77325;BME280;66387;53.440;10.390;2024-03-25T01:27:58;99370.22;;;5.37;100.00
77325;BME280;66387;53.440;10.390;2024-03-25T01:30:23;99371.91;;;5.41;100.00
77325;BME280;66387;53.440;10.390;2024-03-25T01:32:48;99372.72;;;5.43;100.00
77325;BME280;66387;53.440;10.390;2024-03-25T01:35:14;99371.97;;;5.34;100.00
77325;BME280;66387;53.440;10.390;2024-03-25T01:37:41;99375.41;;;5.33;100.00
77325;BME280;66387;53.440;10.390;2024-03-25T01:40:08;99371.16;;;5.29;100.00
77325;BME280;66387;53.440;10.390;2024-03-25T01:42:35;99373.78;;;5.26;100.00
77325;BME280;66387;53.440;10.390;2024-03-25T01:45:01;99379.78;;;5.26;100.00
77325;BME280;66387;53.440;10.390;2024-03-25T01:47:28;99385.78;;;5.25;100.00
77325;BME280;66387;53.440;10.390;2024-03-25T01:49:53;99390.94;;;5.25;100.00
77325;BME280;66387;53.440;10.390;2024-03-25T01:52:21;99390.16;;;5.20;100.00
77325;BME280;66387;53.440;10.390;2024-03-25T01:54:48;99386.78;;;5.14;100.00
77325;BME280;66387;53.440;10.390;2024-03-25T01:57:14;99390.25;;;5.11;100.00
77325;BME280;66387;53.440;10.390;2024-03-25T01:59:40;99397.06;;;5.14;100.00
77325;BME280;66387;53.440;10.390;2024-03-25T02:02:05;99398.81;;;5.13;100.00
77325;BME280;66387;53.440;10.390;2024-03-25T02:04:31;99405.59;;;5.19;100.00
77325;BME280;66387;53.440;10.390;2024-03-25T02:06:56;99399.56;;;5.23;100.00
77325;BME280;66387;53.440;10.390;2024-03-25T02:09:23;99407.28;;;5.24;100.00
77325;BME280;66387;53.440;10.390;2024-03-25T02:11:48;99392.84;;;5.08;100.00
77325;BME280;66387;53.440;10.390;2024-03-25T02:14:15;99407.31;;;5.18;100.00
77325;BME280;66387;53.440;10.390;2024-03-25T02:16:40;99411.63;;;5.16;100.00
77325;BME280;66387;53.440;10.390;2024-03-25T02:19:06;99411.59;;;5.18;100.00
77325;BME280;66387;53.440;10.390;2024-03-25T02:21:32;99417.59;;;5.20;100.00
77325;BME280;66387;53.440;10.390;2024-03-25T02:23:59;99416.78;;;5.16;100.00
77325;BME280;66387;53.440;10.390;2024-03-25T02:26:24;99422.78;;;5.17;100.00
77325;BME280;66387;53.440;10.390;2024-03-25T02:28:49;99422.78;;;5.17;100.00
77325;BME280;66387;53.440;10.390;2024-03-25T02:31:15;99429.59;;;5.18;100.00
77325;BME280;66387;53.440;10.390;2024-03-25T02:33:40;99430.50;;;5.15;100.00
77325;BME280;66387;53.440;10.390;2024-03-25T02:36:07;99433.91;;;5.20;100.00
77325;BME280;66387;53.440;10.390;2024-03-25T02:38:32;99438.09;;;5.27;100.00
77325;BME280;66387;53.440;10.390;2024-03-25T02:40:58;99429.50;;;5.28;100.00
77325;BME280;66387;53.440;10.390;2024-03-25T02:43:24;99427.78;;;5.30;100.00
77325;BME280;66387;53.440;10.390;2024-03-25T02:45:50;99433.75;;;5.32;100.00
77325;BME280;66387;53.440;10.390;2024-03-25T02:48:15;99441.50;;;5.31;100.00
77325;BME280;66387;53.440;10.390;2024-03-25T02:50:40;99443.22;;;5.30;100.00
77325;BME280;66387;53.440;10.390;2024-03-25T02:53:06;99446.59;;;5.35;100.00
77325;BME280;66387;53.440;10.390;2024-03-25T02:55:31;99449.09;;;5.40;100.00
77325;BME280;66387;53.440;10.390;2024-03-25T02:57:56;99452.56;;;5.37;100.00
77325;BME280;66387;53.440;10.390;2024-03-25T03:00:22;99451.72;;;5.37;100.00
77325;BME280;66387;53.440;10.390;2024-03-25T03:02:48;99459.44;;;5.38;100.00
77325;BME280;66387;53.440;10.390;2024-03-25T03:05:13;99453.47;;;5.35;100.00
77325;BME280;66387;53.440;10.390;2024-03-25T03:07:38;99471.47;;;5.33;100.00
77325;BME280;66387;53.440;10.390;2024-03-25T03:10:04;99470.66;;;5.30;100.00
77325;BME280;66387;53.440;10.390;2024-03-25T03:12:30;99466.41;;;5.27;100.00
77325;BME280;66387;53.440;10.390;2024-03-25T03:14:55;99469.84;;;5.26;100.00
77325;BME280;66387;53.440;10.390;2024-03-25T03:17:20;99475.03;;;5.23;100.00
77325;BME280;66387;53.440;10.390;2024-03-25T03:19:46;99475.84;;;5.25;100.00
77325;BME280;66387;53.440;10.390;2024-03-25T03:22:11;99484.44;;;5.24;100.00
77325;BME280;66387;53.440;10.390;2024-03-25T03:24:36;99487.03;;;5.21;100.00
77325;BME280;66387;53.440;10.390;2024-03-25T03:27:02;99489.66;;;5.15;100.00
77325;BME280;66387;53.440;10.390;2024-03-25T03:29:27;99495.66;;;5.14;100.00
77325;BME280;66387;53.440;10.390;2024-03-25T03:31:52;99497.44;;;5.08;100.00
77325;BME280;66387;53.440;10.390;2024-03-25T03:34:18;99502.63;;;5.06;100.00
77325;BME280;66387;53.440;10.390;2024-03-25T03:36:43;99505.19;;;5.05;100.00
77325;BME280;66387;53.440;10.390;2024-03-25T03:39:08;99508.59;;;5.10;100.00
77325;BME280;66387;53.440;10.390;2024-03-25T03:41:34;99518.00;;;5.11;100.00
77325;BME280;66387;53.440;10.390;2024-03-25T03:44:00;99524.00;;;5.13;100.00
77325;BME280;66387;53.440;10.390;2024-03-25T03:46:25;99528.28;;;5.11;100.00
77325;BME280;66387;53.440;10.390;2024-03-25T03:48:50;99526.59;;;5.07;100.00
77325;BME280;66387;53.440;10.390;2024-03-25T03:51:16;99530.88;;;5.09;100.00
77325;BME280;66387;53.440;10.390;2024-03-25T03:53:41;99526.56;;;5.11;100.00
77325;BME280;66387;53.440;10.390;2024-03-25T03:56:06;99532.56;;;5.10;100.00
77325;BME280;66387;53.440;10.390;2024-03-25T03:58:32;99540.31;;;5.07;100.00
77325;BME280;66387;53.440;10.390;2024-03-25T04:00:58;99539.44;;;5.13;100.00
77325;BME280;66387;53.440;10.390;2024-03-25T04:03:23;99533.41;;;5.17;100.00
77325;BME280;66387;53.440;10.390;2024-03-25T04:05:49;99551.38;;;5.20;100.00
77325;BME280;66387;53.440;10.390;2024-03-25T04:08:14;99550.53;;;5.19;100.00
77325;BME280;66387;53.440;10.390;2024-03-25T04:10:40;99561.69;;;5.17;100.00
77325;BME280;66387;53.440;10.390;2024-03-25T04:13:06;99560.81;;;5.19;100.00
77325;BME280;66387;53.440;10.390;2024-03-25T04:15:33;99557.41;;;5.17;100.00
77325;BME280;66387;53.440;10.390;2024-03-25T04:17:58;99561.63;;;5.21;100.00
77325;BME280;66387;53.440;10.390;2024-03-25T04:20:24;99564.25;;;5.18;100.00
77325;BME280;66387;53.440;10.390;2024-03-25T04:22:49;99569.34;;;5.23;100.00
77325;BME280;66387;53.440;10.390;2024-03-25T04:25:14;99571.09;;;5.19;100.00
77325;BME280;66387;53.440;10.390;2024-03-25T04:27:40;99574.50;;;5.21;100.00
77325;BME280;66387;53.440;10.390;2024-03-25T04:30:06;99581.38;;;5.22;100.00
77325;BME280;66387;53.440;10.390;2024-03-25T04:32:33;99576.25;;;5.19;100.00
77325;BME280;66387;53.440;10.390;2024-03-25T04:34:58;99586.47;;;5.25;100.00
77325;BME280;66387;53.440;10.390;2024-03-25T04:37:23;99594.16;;;5.28;100.00
77325;BME280;66387;53.440;10.390;2024-03-25T04:39:49;99594.19;;;5.27;100.00
77325;BME280;66387;53.440;10.390;2024-03-25T04:42:14;99605.34;;;5.26;100.00
77325;BME280;66387;53.440;10.390;2024-03-25T04:44:39;99598.47;;;5.26;100.00
77325;BME280;66387;53.440;10.390;2024-03-25T04:47:05;99607.91;;;5.26;100.00
77325;BME280;66387;53.440;10.390;2024-03-25T04:49:31;99607.13;;;5.19;100.00
77325;BME280;66387;53.440;10.390;2024-03-25T04:51:56;99621.69;;;5.19;100.00
77325;BME280;66387;53.440;10.390;2024-03-25T04:54:21;99621.69;;;5.19;100.00
77325;BME280;66387;53.440;10.390;2024-03-25T04:56:46;99622.56;;;5.19;100.00
77325;BME280;66387;53.440;10.390;2024-03-25T04:59:12;99629.41;;;5.20;100.00
77325;BME280;66387;53.440;10.390;2024-03-25T05:01:38;99634.59;;;5.17;100.00
77325;BME280;66387;53.440;10.390;2024-03-25T05:04:03;99644.03;;;5.17;100.00
77325;BME280;66387;53.440;10.390;2024-03-25T05:06:28;99641.44;;;5.17;100.00
77325;BME280;66387;53.440;10.390;2024-03-25T05:08:53;99642.34;;;5.13;100.00
77325;BME280;66387;53.440;10.390;2024-03-25T05:11:19;99641.50;;;5.09;100.00
77325;BME280;66387;53.440;10.390;2024-03-25T05:13:44;99647.50;;;5.10;100.00
77325;BME280;66387;53.440;10.390;2024-03-25T05:16:10;99642.31;;;5.14;100.00
77325;BME280;66387;53.440;10.390;2024-03-25T05:18:36;99643.19;;;5.13;100.00
77325;BME280;66387;53.440;10.390;2024-03-25T05:21:01;99644.06;;;5.08;100.00
77325;BME280;66387;53.440;10.390;2024-03-25T05:23:27;99648.34;;;5.07;100.00
77325;BME280;66387;53.440;10.390;2024-03-25T05:25:52;99651.78;;;5.09;100.00
77325;BME280;66387;53.440;10.390;2024-03-25T05:28:17;99652.63;;;5.08;100.00
77325;BME280;66387;53.440;10.390;2024-03-25T05:30:42;99650.09;;;5.04;100.00
77325;BME280;66387;53.440;10.390;2024-03-25T05:33:07;99663.81;;;5.04;100.00
77325;BME280;66387;53.440;10.390;2024-03-25T05:35:33;99657.00;;;4.97;100.00
77325;BME280;66387;53.440;10.390;2024-03-25T05:38:01;99665.56;;;5.02;100.00
77325;BME280;66387;53.440;10.390;2024-03-25T05:40:28;99668.94;;;5.04;100.00
77325;BME280;66387;53.440;10.390;2024-03-25T05:42:53;99678.41;;;5.01;100.00
77325;BME280;66387;53.440;10.390;2024-03-25T05:45:18;99676.69;;;5.01;100.00
77325;BME280;66387;53.440;10.390;2024-03-25T05:47:44;99677.53;;;5.06;100.00
77325;BME280;66387;53.440;10.390;2024-03-25T05:50:09;99684.38;;;5.07;100.00
77325;BME280;66387;53.440;10.390;2024-03-25T05:52:35;99675.84;;;4.96;100.00
77325;BME280;66387;53.440;10.390;2024-03-25T05:55:00;99686.13;;;4.96;100.00
77325;BME280;66387;53.440;10.390;2024-03-25T05:57:25;99686.09;;;5.05;100.00
77325;BME280;66387;53.440;10.390;2024-03-25T05:59:51;99694.66;;;5.07;100.00
77325;BME280;66387;53.440;10.390;2024-03-25T06:02:16;99687.81;;;5.05;100.00
77325;BME280;66387;53.440;10.390;2024-03-25T06:04:41;99686.09;;;5.05;100.00
77325;BME280;66387;53.440;10.390;2024-03-25T06:07:07;99692.09;;;5.09;100.00
77325;BME280;66387;53.440;10.390;2024-03-25T06:09:32;99692.06;;;5.13;100.00
77325;BME280;66387;53.440;10.390;2024-03-25T06:11:57;99687.81;;;5.09;100.00
77325;BME280;66387;53.440;10.390;2024-03-25T06:14:22;99700.63;;;5.12;100.00
77325;BME280;66387;53.440;10.390;2024-03-25T06:16:47;99700.63;;;5.11;100.00
77325;BME280;66387;53.440;10.390;2024-03-25T06:19:13;99697.22;;;5.13;100.00
77325;BME280;66387;53.440;10.390;2024-03-25T06:21:38;99702.34;;;5.12;100.00
77325;BME280;66387;53.440;10.390;2024-03-25T06:24:04;99701.50;;;5.08;100.00
77325;BME280;66387;53.440;10.390;2024-03-25T06:26:29;99719.50;;;5.07;100.00
77325;BME280;66387;53.440;10.390;2024-03-25T06:28:54;99716.09;;;5.05;100.00
77325;BME280;66387;53.440;10.390;2024-03-25T06:31:20;99710.06;;;5.12;100.00
77325;BME280;66387;53.440;10.390;2024-03-25T06:34:03;99721.25;;;5.06;100.00
77325;BME280;66387;53.440;10.390;2024-03-25T06:36:47;99727.25;;;5.05;100.00
77325;BME280;66387;53.440;10.390;2024-03-25T06:39:13;99722.13;;;5.05;100.00
77325;BME280;66387;53.440;10.390;2024-03-25T06:41:38;99713.47;;;5.14;100.00
77325;BME280;66387;53.440;10.390;2024-03-25T06:44:04;99725.44;;;5.22;100.00
77325;BME280;66387;53.440;10.390;2024-03-25T06:46:30;99732.31;;;5.23;100.00
77325;BME280;66387;53.440;10.390;2024-03-25T06:48:55;99742.56;;;5.25;100.00
77325;BME280;66387;53.440;10.390;2024-03-25T06:51:20;99740.84;;;5.25;100.00
77325;BME280;66387;53.440;10.390;2024-03-25T06:53:46;99746.06;;;5.21;100.00
77325;BME280;66387;53.440;10.390;2024-03-25T06:56:11;99740.84;;;5.25;100.00
77325;BME280;66387;53.440;10.390;2024-03-25T06:58:36;99754.56;;;5.26;100.00
77325;BME280;66387;53.440;10.390;2024-03-25T07:01:06;99758.88;;;5.25;100.00
77325;BME280;66387;53.440;10.390;2024-03-25T07:03:32;99773.44;;;5.31;100.00
77325;BME280;66387;53.440;10.390;2024-03-25T07:05:58;99764.91;;;5.24;100.00
77325;BME280;66387;53.440;10.390;2024-03-25T07:08:25;99769.16;;;5.27;100.00
77325;BME280;66387;53.440;10.390;2024-03-25T07:10:50;99773.44;;;5.26;100.00
77325;BME280;66387;53.440;10.390;2024-03-25T07:13:16;99770.88;;;5.25;100.00
77325;BME280;66387;53.440;10.390;2024-03-25T07:15:42;99770.88;;;5.28;100.00
77325;BME280;66387;53.440;10.390;2024-03-25T07:18:08;99773.41;;;5.32;100.00
77325;BME280;66387;53.440;10.390;2024-03-25T07:20:35;99783.75;;;5.26;100.00
77325;BME280;66387;53.440;10.390;2024-03-25T07:23:01;99778.59;;;5.26;100.00
77325;BME280;66387;53.440;10.390;2024-03-25T07:25:26;99781.16;;;5.25;100.00
77325;BME280;66387;53.440;10.390;2024-03-25T07:27:52;99775.16;;;5.27;100.00
77325;BME280;66387;53.440;10.390;2024-03-25T07:30:18;99778.59;;;5.26;100.00
77325;BME280;66387;53.440;10.390;2024-03-25T07:32:44;99790.56;;;5.33;100.00
77325;BME280;66387;53.440;10.390;2024-03-25T07:35:13;99794.78;;;5.45;100.00
77325;BME280;66387;53.440;10.390;2024-03-25T07:37:38;99792.09;;;5.65;100.00
77325;BME280;66387;53.440;10.390;2024-03-25T07:40:04;99804.94;;;5.69;100.00
77325;BME280;66387;53.440;10.390;2024-03-25T07:42:30;99791.22;;;5.69;100.00
77325;BME280;66387;53.440;10.390;2024-03-25T07:44:55;99800.66;;;5.70;100.00
77325;BME280;66387;53.440;10.390;2024-03-25T07:47:21;99807.53;;;5.68;100.00
77325;BME280;66387;53.440;10.390;2024-03-25T07:49:46;99801.59;;;5.55;100.00
77325;BME280;66387;53.440;10.390;2024-03-25T07:52:11;99809.28;;;5.63;100.00
77325;BME280;66387;53.440;10.390;2024-03-25T07:54:37;99806.69;;;5.61;100.00
77325;BME280;66387;53.440;10.390;2024-03-25T07:57:03;99808.44;;;5.61;100.00
77325;BME280;66387;53.440;10.390;2024-03-25T07:59:29;99807.50;;;5.72;100.00
77325;BME280;66387;53.440;10.390;2024-03-25T08:01:54;99810.06;;;5.72;100.00
77325;BME280;66387;53.440;10.390;2024-03-25T08:04:19;99806.66;;;5.70;100.00
77325;BME280;66387;53.440;10.390;2024-03-25T08:06:45;99796.34;;;5.73;100.00
77325;BME280;66387;53.440;10.390;2024-03-25T08:09:10;99805.75;;;5.77;100.00
77325;BME280;66387;53.440;10.390;2024-03-25T08:11:38;99808.31;;;5.79;100.00
77325;BME280;66387;53.440;10.390;2024-03-25T08:14:04;99808.28;;;5.85;100.00
77325;BME280;66387;53.440;10.390;2024-03-25T08:16:29;99811.59;;;6.02;100.00
77325;BME280;66387;53.440;10.390;2024-03-25T08:18:54;99812.44;;;6.07;100.00
77325;BME280;66387;53.440;10.390;2024-03-25T08:21:20;99820.16;;;6.07;100.00
77325;BME280;66387;53.440;10.390;2024-03-25T08:23:45;99829.72;;;5.93;100.00
77325;BME280;66387;53.440;10.390;2024-03-25T08:26:11;99834.94;;;5.78;100.00
77325;BME280;66387;53.440;10.390;2024-03-25T08:28:36;99829.75;;;5.81;100.00
77325;BME280;66387;53.440;10.390;2024-03-25T08:31:01;99838.31;;;5.83;100.00
77325;BME280;66387;53.440;10.390;2024-03-25T08:33:27;99838.31;;;5.83;100.00
77325;BME280;66387;53.440;10.390;2024-03-25T08:35:53;99840.91;;;5.81;100.00
77325;BME280;66387;53.440;10.390;2024-03-25T08:38:18;99837.44;;;5.93;100.00
77325;BME280;66387;53.440;10.390;2024-03-25T08:40:44;99841.69;;;6.00;100.00
77325;BME280;66387;53.440;10.390;2024-03-25T08:43:09;99840.75;;;6.09;100.00
77325;BME280;66387;53.440;10.390;2024-03-25T08:45:34;99842.47;;;6.10;100.00
77325;BME280;66387;53.440;10.390;2024-03-25T08:48:00;99840.66;;;6.21;100.00
77325;BME280;66387;53.440;10.390;2024-03-25T08:50:25;99857.91;;;6.13;100.00
77325;BME280;66387;53.440;10.390;2024-03-25T08:52:50;99853.59;;;6.18;100.00
77325;BME280;66387;53.440;10.390;2024-03-25T08:55:15;99861.41;;;6.03;100.00
77325;BME280;66387;53.440;10.390;2024-03-25T08:57:41;99855.44;;;5.98;100.00
77325;BME280;66387;53.440;10.390;2024-03-25T09:00:06;99850.31;;;5.96;100.00
77325;BME280;66387;53.440;10.390;2024-03-25T09:02:35;99856.25;;;6.06;100.00
77325;BME280;66387;53.440;10.390;2024-03-25T09:05:01;99853.59;;;6.13;100.00
77325;BME280;66387;53.440;10.390;2024-03-25T09:07:26;99856.16;;;6.18;100.00
77325;BME280;66387;53.440;10.390;2024-03-25T09:09:51;99856.06;;;6.27;100.00
77325;BME280;66387;53.440;10.390;2024-03-25T09:12:35;99854.03;;;6.64;100.00
77325;BME280;66387;53.440;10.390;2024-03-25T09:15:01;99855.53;;;6.86;100.00
77325;BME280;66387;53.440;10.390;2024-03-25T09:17:26;99857.25;;;6.85;100.00
77325;BME280;66387;53.440;10.390;2024-03-25T09:19:51;99851.91;;;7.04;100.00
77325;BME280;66387;53.440;10.390;2024-03-25T09:22:16;99854.38;;;7.14;100.00
77325;BME280;66387;53.440;10.390;2024-03-25T09:24:42;99852.59;;;7.19;100.00
77325;BME280;66387;53.440;10.390;2024-03-25T09:27:08;99857.03;;;7.07;100.00
77325;BME280;66387;53.440;10.390;2024-03-25T09:29:33;99863.97;;;7.02;100.00
77325;BME280;66387;53.440;10.390;2024-03-25T09:31:58;99860.53;;;7.03;100.00
77325;BME280;66387;53.440;10.390;2024-03-25T09:34:23;99851.00;;;7.08;100.00
77325;BME280;66387;53.440;10.390;2024-03-25T09:36:49;99853.41;;;7.23;100.00
77325;BME280;66387;53.440;10.390;2024-03-25T09:39:14;99844.25;;;7.68;100.00
77325;BME280;66387;53.440;10.390;2024-03-25T09:41:42;99853.19;;;8.02;100.00
77325;BME280;66387;53.440;10.390;2024-03-25T09:44:08;99847.09;;;8.06;100.00
77325;BME280;66387;53.440;10.390;2024-03-25T09:46:35;99849.38;;;8.30;100.00
77325;BME280;66387;53.440;10.390;2024-03-25T09:49:01;99848.78;;;8.64;100.00
77325;BME280;66387;53.440;10.390;2024-03-25T09:51:30;99853.44;;;8.44;100.00
77325;BME280;66387;53.440;10.390;2024-03-25T09:53:55;99853.13;;;8.08;100.00
77325;BME280;66387;53.440;10.390;2024-03-25T09:56:21;99869.94;;;7.78;100.00
77325;BME280;66387;53.440;10.390;2024-03-25T09:58:47;99873.19;;;7.22;100.00
77325;BME280;66387;53.440;10.390;2024-03-25T10:01:14;99872.72;;;6.87;100.00
77325;BME280;66387;53.440;10.390;2024-03-25T10:03:39;99874.56;;;6.77;100.00
77325;BME280;66387;53.440;10.390;2024-03-25T10:06:04;99871.22;;;6.66;100.00
77325;BME280;66387;53.440;10.390;2024-03-25T10:08:30;99860.81;;;6.75;100.00
77325;BME280;66387;53.440;10.390;2024-03-25T10:10:55;99875.34;;;6.84;100.00
77325;BME280;66387;53.440;10.390;2024-03-25T10:13:21;99864.13;;;6.86;100.00
77325;BME280;66387;53.440;10.390;2024-03-25T10:15:49;99870.88;;;7.01;100.00
77325;BME280;66387;53.440;10.390;2024-03-25T10:18:15;99861.56;;;7.58;100.00
77325;BME280;66387;53.440;10.390;2024-03-25T10:20:50;99852.38;;;8.00;100.00
77325;BME280;66387;53.440;10.390;2024-03-25T10:23:15;99858.00;;;8.26;100.00
77325;BME280;66387;53.440;10.390;2024-03-25T10:25:41;99853.69;;;8.28;100.00
77325;BME280;66387;53.440;10.390;2024-03-25T10:28:06;99861.91;;;7.97;100.00
77325;BME280;66387;53.440;10.390;2024-03-25T10:30:32;99850.00;;;7.85;100.00
77325;BME280;66387;53.440;10.390;2024-03-25T10:33:01;99853.41;;;7.87;100.00
77325;BME280;66387;53.440;10.390;2024-03-25T10:35:28;99857.78;;;7.83;100.00
77325;BME280;66387;53.440;10.390;2024-03-25T10:38:01;99860.50;;;7.73;100.00
77325;BME280;66387;53.440;10.390;2024-03-25T10:40:29;99868.41;;;7.64;100.00
77325;BME280;66387;53.440;10.390;2024-03-25T10:45:24;99871.72;;;8.31;100.00
77325;BME280;66387;53.440;10.390;2024-03-25T10:47:52;99859.91;;;8.70;100.00
77325;BME280;66387;53.440;10.390;2024-03-25T10:50:21;99854.28;;;9.38;100.00
77325;BME280;66387;53.440;10.390;2024-03-25T10:53:31;99860.25;;;9.41;99.81
77325;BME280;66387;53.440;10.390;2024-03-25T10:56:01;99867.44;;;9.27;100.00
77325;BME280;66387;53.440;10.390;2024-03-25T10:58:31;99863.75;;;8.94;97.27
77325;BME280;66387;53.440;10.390;2024-03-25T11:00:58;99866.38;;;8.93;98.72
77325;BME280;66387;53.440;10.390;2024-03-25T11:03:24;99875.41;;;8.70;99.43
77325;BME280;66387;53.440;10.390;2024-03-25T11:05:50;99877.41;;;8.53;100.00
77325;BME280;66387;53.440;10.390;2024-03-25T11:08:16;99894.19;;;8.29;100.00
77325;BME280;66387;53.440;10.390;2024-03-25T11:10:43;99875.44;;;8.14;100.00
77325;BME280;66387;53.440;10.390;2024-03-25T11:13:12;99882.50;;;8.03;100.00
77325;BME280;66387;53.440;10.390;2024-03-25T11:15:42;99876.34;;;8.11;100.00
77325;BME280;66387;53.440;10.390;2024-03-25T11:18:17;99872.84;;;8.14;100.00
77325;BME280;66387;53.440;10.390;2024-03-25T11:20:43;99873.59;;;8.22;100.00
77325;BME280;66387;53.440;10.390;2024-03-25T11:23:09;99869.09;;;8.36;100.00
77325;BME280;66387;53.440;10.390;2024-03-25T11:25:36;99863.50;;;8.60;98.71
77325;BME280;66387;53.440;10.390;2024-03-25T11:28:01;99872.03;;;8.67;96.83
77325;BME280;66387;53.440;10.390;2024-03-25T11:30:27;99869.09;;;9.31;94.66
77325;BME280;66387;53.440;10.390;2024-03-25T11:32:54;99864.63;;;9.39;94.73
77325;BME280;66387;53.440;10.390;2024-03-25T11:35:20;99865.19;;;9.10;92.86
77325;BME280;66387;53.440;10.390;2024-03-25T11:37:45;99867.28;;;8.90;96.28
77325;BME280;66387;53.440;10.390;2024-03-25T11:40:12;99877.22;;;8.64;95.86
77325;BME280;66387;53.440;10.390;2024-03-25T11:42:39;99869.81;;;8.44;100.00
77325;BME280;66387;53.440;10.390;2024-03-25T11:45:06;99876.13;;;8.23;100.00
77325;BME280;66387;53.440;10.390;2024-03-25T11:47:31;99874.53;;;8.16;100.00
77325;BME280;66387;53.440;10.390;2024-03-25T11:49:57;99875.63;;;8.00;100.00
77325;BME280;66387;53.440;10.390;2024-03-25T11:52:22;99865.09;;;8.15;98.91
77325;BME280;66387;53.440;10.390;2024-03-25T11:54:54;99858.75;;;8.36;91.06
77325;BME280;66387;53.440;10.390;2024-03-25T11:57:20;99848.09;;;9.02;87.22
77325;BME280;66387;53.440;10.390;2024-03-25T11:59:46;99856.00;;;9.39;85.28
77325;BME280;66387;53.440;10.390;2024-03-25T12:02:13;99847.47;;;10.10;83.57
77325;BME280;66387;53.440;10.390;2024-03-25T12:04:42;99844.88;;;10.49;75.67
77325;BME280;66387;53.440;10.390;2024-03-25T12:07:07;99840.09;;;10.98;69.92
77325;BME280;66387;53.440;10.390;2024-03-25T12:09:32;99852.03;;;10.73;69.18
77325;BME280;66387;53.440;10.390;2024-03-25T12:12:16;99849.59;;;10.67;71.20
77325;BME280;66387;53.440;10.390;2024-03-25T12:14:42;99855.25;;;10.10;71.04
77325;BME280;66387;53.440;10.390;2024-03-25T12:17:07;99849.88;;;9.81;73.94
77325;BME280;66387;53.440;10.390;2024-03-25T12:19:33;99851.59;;;9.82;73.54
77325;BME280;66387;53.440;10.390;2024-03-25T12:22:00;99851.94;;;9.67;74.11
77325;BME280;66387;53.440;10.390;2024-03-25T12:24:26;99845.81;;;9.71;72.80
77325;BME280;66387;53.440;10.390;2024-03-25T12:26:51;99840.78;;;10.39;68.86
77325;BME280;66387;53.440;10.390;2024-03-25T12:29:16;99837.56;;;11.26;65.81
77325;BME280;66387;53.440;10.390;2024-03-25T12:31:42;99830.72;;;12.10;62.86
77325;BME280;66387;53.440;10.390;2024-03-25T12:34:12;99824.50;;;12.15;60.77
77325;BME280;66387;53.440;10.390;2024-03-25T12:36:38;99823.94;;;11.78;61.44
77325;BME280;66387;53.440;10.390;2024-03-25T12:39:03;99822.41;;;11.72;61.05
77325;BME280;66387;53.440;10.390;2024-03-25T12:41:29;99819.13;;;11.64;62.53
77325;BME280;66387;53.440;10.390;2024-03-25T12:43:54;99813.44;;;11.52;61.08
77325;BME280;66387;53.440;10.390;2024-03-25T12:46:19;99827.84;;;11.03;60.60